Time;durP1;ratioP1;P1;durP2;ratioP2;P2;SDS_P1;SDS_P2;PMS_P1;PMS_P2;Temp;Humidity;BMP_temperature;BMP_pressure;BME280_temperature;BME280_humidity;BME280_pressure;Samples;Min_cycle;Max_cycle;Signal;HPM_P1;HPM_P2
2022/09/29 00:00:53;;;;;;;0.55;0.40;;;;;;;;;;4163070;28;20064;-42
2022/09/29 00:02:54;;;;;;;0.35;0.30;;;;;;;;;;4163569;28;20115;-42
2022/09/29 00:04:55;;;;;;;0.28;0.25;;;;;;;;;;4161179;28;20115;-43
2022/09/29 00:06:56;;;;;;;0.63;0.50;;;;;;;;;;4148506;28;20064;-42
2022/09/29 00:08:57;;;;;;;0.40;0.40;;;;;;;;;;4159629;28;20243;-42
2022/09/29 00:10:59;;;;;;;0.80;0.40;;;;;;;;;;4151736;28;20054;-42
2022/09/29 00:13:00;;;;;;;0.43;0.30;;;;;;;;;;4157260;28;20152;-42
2022/09/29 00:15:02;;;;;;;0.40;0.40;;;;;;;;;;4160597;28;20544;-42
2022/09/29 00:17:03;;;;;;;0.60;0.40;;;;;;;;;;4159855;28;20053;-41
2022/09/29 00:19:04;;;;;;;0.60;0.40;;;;;;;;;;4158400;28;20108;-41
2022/09/29 00:21:14;;;;;;;0.77;0.60;;;;;;;;;;4159335;28;20057;-41
2022/09/29 00:23:17;;;;;;;0.40;0.40;;;;;;;;;;4159630;28;20057;-41
2022/09/29 00:25:19;;;;;;;0.60;0.40;;;;;;;;;;4161672;28;20053;-41
2022/09/29 00:27:20;;;;;;;0.93;0.47;;;;;;;;;;4159657;28;20057;-41
2022/09/29 00:29:21;;;;;;;0.90;0.47;;;;;;;;;;4158524;28;20151;-41
2022/09/29 00:31:25;;;;;;;0.40;0.35;;;;;;;;;;4161636;28;20061;-41
2022/09/29 00:33:30;;;;;;;0.40;0.30;;;;;;;;;;4155435;28;20083;-42
2022/09/29 00:35:32;;;;;;;0.35;0.35;;;;;;;;;;4159283;28;20099;-41
2022/09/29 00:37:34;;;;;;;0.40;0.40;;;;;;;;;;4153547;28;20127;-41
2022/09/29 00:39:35;;;;;;;1.08;0.60;;;;;;;;;;4151343;28;20055;-41
2022/09/29 00:41:38;;;;;;;0.55;0.55;;;;;;;;;;4151096;28;20057;-41
2022/09/29 00:43:57;;;;;;;0.32;0.32;;;;;;;;;;4158468;28;20528;-41
2022/09/29 00:45:58;;;;;;;0.20;0.20;;;;;;;;;;4158685;28;20451;-41
2022/09/29 00:48:12;;;;;;;0.73;0.45;;;;;;;;;;4158191;28;20103;-40
2022/09/29 00:50:18;;;;;;;0.22;0.22;;;;;;;;;;4159079;28;20088;-40
2022/09/29 00:52:22;;;;;;;0.40;0.35;;;;;;;;;;4143822;28;20053;-42
2022/09/29 00:54:28;;;;;;;0.40;0.40;;;;;;;;;;4157898;28;20072;-40
2022/09/29 00:56:30;;;;;;;0.65;0.40;;;;;;;;;;4160614;28;20049;-42
2022/09/29 00:58:34;;;;;;;0.60;0.40;;;;;;;;;;4159199;28;20148;-42
2022/09/29 01:00:35;;;;;;;1.52;0.47;;;;;;;;;;4161739;28;20076;-42
2022/09/29 01:02:45;;;;;;;0.80;0.40;;;;;;;;;;4156305;28;20057;-41
2022/09/29 01:04:51;;;;;;;0.40;0.40;;;;;;;;;;4159771;28;20065;-42
2022/09/29 01:06:55;;;;;;;0.40;0.40;;;;;;;;;;4156322;28;20053;-42
2022/09/29 01:09:03;;;;;;;0.40;0.40;;;;;;;;;;4159882;28;20111;-42
2022/09/29 01:11:04;;;;;;;1.15;0.50;;;;;;;;;;4151075;28;20425;-42
2022/09/29 01:13:07;;;;;;;0.65;0.40;;;;;;;;;;4152803;28;20065;-41
2022/09/29 01:15:08;;;;;;;0.38;0.25;;;;;;;;;;4159500;28;20539;-41
2022/09/29 01:17:10;;;;;;;0.73;0.47;;;;;;;;;;4158285;28;20045;-42
2022/09/29 01:19:45;;;;;;;0.43;0.40;;;;;;;;;;4156477;28;20497;-41
2022/09/29 01:21:54;;;;;;;0.40;0.40;;;;;;;;;;4160288;28;20049;-41
2022/09/29 01:24:35;;;;;;;0.65;0.50;;;;;;;;;;4159165;28;20746;-41
2022/09/29 01:26:48;;;;;;;0.30;0.30;;;;;;;;;;4158252;28;20049;-41
2022/09/29 01:29:28;;;;;;;0.57;0.50;;;;;;;;;;4158810;28;20096;-41
2022/09/29 01:31:49;;;;;;;0.90;0.50;;;;;;;;;;4159250;28;20053;-41
2022/09/29 01:34:01;;;;;;;1.02;0.60;;;;;;;;;;4156003;28;20057;-41
2022/09/29 01:36:12;;;;;;;0.57;0.40;;;;;;;;;;4159215;28;20049;-42
2022/09/29 01:38:24;;;;;;;0.70;0.57;;;;;;;;;;4159326;28;20045;-42
2022/09/29 01:40:35;;;;;;;0.40;0.40;;;;;;;;;;4160883;28;20049;-42
2022/09/29 01:42:46;;;;;;;0.80;0.45;;;;;;;;;;4161066;28;20547;-42
2022/09/29 01:44:54;;;;;;;0.40;0.40;;;;;;;;;;4159389;28;20468;-41
2022/09/29 01:47:18;;;;;;;0.60;0.50;;;;;;;;;;4154826;28;20050;-41
2022/09/29 01:49:20;;;;;;;0.60;0.40;;;;;;;;;;4147863;28;20054;-42
2022/09/29 01:51:47;;;;;;;0.95;0.40;;;;;;;;;;4173729;28;20049;-41
2022/09/29 01:53:52;;;;;;;0.57;0.50;;;;;;;;;;4161362;28;20057;-41
2022/09/29 01:55:57;;;;;;;1.15;0.50;;;;;;;;;;4161621;28;20459;-41
2022/09/29 01:58:01;;;;;;;0.40;0.40;;;;;;;;;;4160150;28;20500;-41
2022/09/29 02:00:07;;;;;;;0.70;0.50;;;;;;;;;;4162984;28;20099;-42
2022/09/29 02:02:21;;;;;;;0.50;0.35;;;;;;;;;;4160538;28;20053;-41
2022/09/29 02:04:29;;;;;;;0.47;0.40;;;;;;;;;;4157286;28;20053;-41
2022/09/29 02:06:35;;;;;;;0.40;0.40;;;;;;;;;;4154870;28;20099;-41
2022/09/29 02:08:41;;;;;;;0.70;0.60;;;;;;;;;;4142479;28;20441;-42
2022/09/29 02:10:54;;;;;;;0.43;0.40;;;;;;;;;;4159135;28;20054;-41
2022/09/29 02:12:56;;;;;;;0.50;0.47;;;;;;;;;;4158123;28;20057;-41
2022/09/29 02:14:59;;;;;;;0.52;0.47;;;;;;;;;;4164546;28;20060;-41
2022/09/29 02:17:06;;;;;;;0.82;0.40;;;;;;;;;;4161817;28;20046;-41
2022/09/29 02:19:28;;;;;;;0.90;0.50;;;;;;;;;;4162831;28;20076;-41
2022/09/29 02:21:30;;;;;;;1.05;0.60;;;;;;;;;;4165703;28;20072;-41
2022/09/29 02:23:31;;;;;;;0.60;0.40;;;;;;;;;;4164636;28;20060;-41
2022/09/29 02:25:35;;;;;;;0.30;0.30;;;;;;;;;;4165051;28;20504;-41
2022/09/29 02:27:36;;;;;;;0.63;0.50;;;;;;;;;;4158289;28;20516;-41
2022/09/29 02:29:38;;;;;;;0.50;0.40;;;;;;;;;;4159367;28;20065;-41
2022/09/29 02:31:39;;;;;;;0.40;0.40;;;;;;;;;;4165625;28;20096;-41
2022/09/29 02:33:40;;;;;;;0.47;0.38;;;;;;;;;;4164184;28;20416;-41
2022/09/29 02:35:51;;;;;;;0.60;0.52;;;;;;;;;;4165509;28;20060;-41
2022/09/29 02:38:04;;;;;;;0.73;0.60;;;;;;;;;;4164839;28;20130;-41
2022/09/29 02:40:27;;;;;;;0.95;0.50;;;;;;;;;;4132482;28;20073;-41
2022/09/29 02:42:36;;;;;;;0.50;0.40;;;;;;;;;;4138774;28;20096;-41
2022/09/29 02:44:57;;;;;;;1.00;0.50;;;;;;;;;;4162445;28;20590;-41
2022/09/29 02:47:28;;;;;;;0.55;0.50;;;;;;;;;;4154466;28;20060;-42
2022/09/29 02:50:18;;;;;;;0.55;0.47;;;;;;;;;;4156097;28;20049;-41
2022/09/29 02:52:30;;;;;;;0.35;0.35;;;;;;;;;;4153945;28;20108;-41
2022/09/29 02:54:45;;;;;;;0.65;0.47;;;;;;;;;;4161984;28;20057;-41
2022/09/29 02:56:57;;;;;;;0.20;0.20;;;;;;;;;;4158044;28;20413;-41
2022/09/29 02:59:11;;;;;;;0.85;0.40;;;;;;;;;;4157295;28;20054;-43
2022/09/29 03:01:15;;;;;;;0.43;0.40;;;;;;;;;;4161263;28;20050;-41
2022/09/29 03:03:16;;;;;;;0.40;0.40;;;;;;;;;;4156901;28;20099;-41
2022/09/29 03:05:20;;;;;;;0.43;0.43;;;;;;;;;;4163148;28;20103;-41
2022/09/29 03:07:22;;;;;;;0.35;0.30;;;;;;;;;;4161188;28;20111;-42
2022/09/29 03:09:24;;;;;;;0.80;0.47;;;;;;;;;;4158841;28;20475;-41
2022/09/29 03:11:25;;;;;;;0.60;0.50;;;;;;;;;;4162455;28;20053;-41
2022/09/29 03:13:27;;;;;;;0.68;0.40;;;;;;;;;;4164627;28;20057;-41
2022/09/29 03:15:28;;;;;;;0.60;0.50;;;;;;;;;;4163444;28;20053;-41
2022/09/29 03:17:30;;;;;;;0.77;0.40;;;;;;;;;;4163449;28;20618;-41
2022/09/29 03:19:31;;;;;;;0.70;0.45;;;;;;;;;;4163137;28;20512;-41
2022/09/29 03:21:32;;;;;;;0.30;0.30;;;;;;;;;;4164888;28;20053;-41
2022/09/29 03:23:33;;;;;;;0.40;0.40;;;;;;;;;;4163056;28;20057;-41
2022/09/29 03:25:34;;;;;;;0.30;0.30;;;;;;;;;;4163419;28;20107;-41
2022/09/29 03:27:37;;;;;;;0.45;0.30;;;;;;;;;;4164413;28;20508;-41
2022/09/29 03:29:38;;;;;;;0.30;0.30;;;;;;;;;;4154330;28;20486;-41
2022/09/29 03:31:39;;;;;;;0.50;0.32;;;;;;;;;;4165024;28;20088;-41
2022/09/29 03:33:41;;;;;;;0.40;0.40;;;;;;;;;;4162188;28;20053;-41
2022/09/29 03:35:42;;;;;;;0.73;0.40;;;;;;;;;;4163155;28;20411;-41
2022/09/29 03:37:44;;;;;;;0.20;0.20;;;;;;;;;;4163821;28;20057;-41
2022/09/29 03:39:46;;;;;;;0.32;0.32;;;;;;;;;;4163663;28;20107;-41
2022/09/29 03:41:47;;;;;;;0.47;0.30;;;;;;;;;;4163321;28;20119;-41
2022/09/29 03:43:48;;;;;;;0.75;0.40;;;;;;;;;;4154380;28;20516;-41
2022/09/29 03:45:51;;;;;;;0.60;0.43;;;;;;;;;;4157842;28;20500;-41
2022/09/29 03:47:53;;;;;;;0.60;0.50;;;;;;;;;;4150420;28;20107;-41
2022/09/29 03:49:54;;;;;;;0.50;0.47;;;;;;;;;;4160985;28;20057;-41
2022/09/29 03:51:55;;;;;;;0.30;0.30;;;;;;;;;;4161816;28;20452;-41
2022/09/29 03:53:56;;;;;;;0.60;0.40;;;;;;;;;;4160293;28;20489;-41
2022/09/29 03:55:58;;;;;;;0.57;0.45;;;;;;;;;;4161177;28;20062;-41
2022/09/29 03:57:59;;;;;;;0.50;0.50;;;;;;;;;;4162205;28;20485;-41
2022/09/29 04:00:00;;;;;;;0.40;0.40;;;;;;;;;;4161015;28;20053;-42
2022/09/29 04:02:01;;;;;;;0.40;0.40;;;;;;;;;;4162486;28;20073;-41
2022/09/29 04:04:03;;;;;;;0.50;0.50;;;;;;;;;;4160903;28;20095;-41
2022/09/29 04:06:04;;;;;;;0.28;0.28;;;;;;;;;;4160951;28;20103;-41
2022/09/29 04:08:07;;;;;;;0.50;0.38;;;;;;;;;;4158143;28;20512;-41
2022/09/29 04:10:08;;;;;;;0.40;0.38;;;;;;;;;;4160118;28;20053;-41
2022/09/29 04:12:09;;;;;;;0.38;0.35;;;;;;;;;;4161721;28;20463;-41
2022/09/29 04:14:11;;;;;;;0.43;0.40;;;;;;;;;;4161972;28;20115;-41
2022/09/29 04:16:12;;;;;;;0.60;0.50;;;;;;;;;;4161918;28;20115;-41
2022/09/29 04:18:14;;;;;;;1.05;0.40;;;;;;;;;;4161230;28;20060;-41
2022/09/29 04:20:15;;;;;;;0.30;0.30;;;;;;;;;;4160952;28;20088;-41
2022/09/29 04:22:17;;;;;;;0.70;0.55;;;;;;;;;;4159582;28;20064;-41
2022/09/29 04:24:18;;;;;;;0.40;0.40;;;;;;;;;;4159703;28;20068;-41
2022/09/29 04:26:20;;;;;;;0.40;0.30;;;;;;;;;;4157478;28;20520;-41
2022/09/29 04:28:21;;;;;;;0.40;0.40;;;;;;;;;;4158529;28;20049;-41
2022/09/29 04:30:22;;;;;;;0.43;0.32;;;;;;;;;;4160081;28;20061;-41
2022/09/29 04:32:24;;;;;;;0.60;0.45;;;;;;;;;;4159638;28;20397;-41
2022/09/29 04:34:25;;;;;;;0.70;0.50;;;;;;;;;;4157602;28;20057;-41
2022/09/29 04:36:26;;;;;;;0.40;0.40;;;;;;;;;;4162868;28;21224;-41
2022/09/29 04:38:28;;;;;;;0.50;0.40;;;;;;;;;;4163641;28;20488;-41
2022/09/29 04:40:29;;;;;;;0.50;0.30;;;;;;;;;;4158152;28;20490;-41
2022/09/29 04:42:30;;;;;;;0.40;0.40;;;;;;;;;;4153844;28;20277;-41
2022/09/29 04:44:32;;;;;;;0.50;0.50;;;;;;;;;;4163524;28;20083;-41
2022/09/29 04:46:33;;;;;;;0.82;0.40;;;;;;;;;;4163395;28;20057;-42
2022/09/29 04:48:35;;;;;;;0.40;0.40;;;;;;;;;;4162110;28;20492;-41
2022/09/29 04:50:36;;;;;;;0.45;0.45;;;;;;;;;;4163620;28;20060;-41
2022/09/29 04:52:41;;;;;;;0.50;0.40;;;;;;;;;;4162688;28;20060;-41
2022/09/29 04:54:42;;;;;;;0.38;0.38;;;;;;;;;;4162461;28;20054;-42
2022/09/29 04:56:43;;;;;;;0.50;0.40;;;;;;;;;;4162203;28;20053;-41
2022/09/29 04:58:45;;;;;;;0.60;0.60;;;;;;;;;;4161705;28;20053;-41
2022/09/29 05:00:46;;;;;;;0.52;0.40;;;;;;;;;;4156587;28;20104;-41
2022/09/29 05:02:48;;;;;;;0.50;0.47;;;;;;;;;;4159521;28;20524;-41
2022/09/29 05:04:49;;;;;;;0.52;0.50;;;;;;;;;;4159405;28;20099;-41
2022/09/29 05:06:50;;;;;;;0.88;0.75;;;;;;;;;;4160522;28;20456;-41
2022/09/29 05:08:52;;;;;;;0.65;0.43;;;;;;;;;;4159108;28;20103;-41
2022/09/29 05:10:53;;;;;;;0.90;0.60;;;;;;;;;;4157557;28;20099;-41
2022/09/29 05:12:54;;;;;;;0.82;0.40;;;;;;;;;;4159778;28;20109;-41
2022/09/29 05:14:56;;;;;;;0.52;0.43;;;;;;;;;;4159161;28;20057;-41
2022/09/29 05:16:57;;;;;;;0.65;0.40;;;;;;;;;;4160288;28;20103;-41
2022/09/29 05:18:58;;;;;;;0.30;0.25;;;;;;;;;;4157313;28;20050;-41
2022/09/29 05:21:07;;;;;;;0.50;0.50;;;;;;;;;;4156288;28;20548;-41
2022/09/29 05:23:08;;;;;;;0.65;0.40;;;;;;;;;;4158626;28;20409;-41
2022/09/29 05:25:10;;;;;;;0.40;0.40;;;;;;;;;;4158383;28;20049;-41
2022/09/29 05:27:11;;;;;;;0.77;0.60;;;;;;;;;;4155034;28;20053;-42
2022/09/29 05:29:12;;;;;;;0.40;0.40;;;;;;;;;;4158680;28;20373;-42
2022/09/29 05:31:14;;;;;;;0.45;0.40;;;;;;;;;;4157789;28;20088;-41
2022/09/29 05:33:15;;;;;;;0.40;0.40;;;;;;;;;;4156326;28;20394;-41
2022/09/29 05:35:16;;;;;;;0.40;0.40;;;;;;;;;;4160471;28;20061;-41
2022/09/29 05:37:18;;;;;;;0.30;0.30;;;;;;;;;;4160733;28;20057;-41
2022/09/29 05:39:19;;;;;;;0.82;0.40;;;;;;;;;;4159757;28;20511;-42
2022/09/29 05:41:24;;;;;;;0.35;0.35;;;;;;;;;;4161592;28;20057;-41
2022/09/29 05:43:25;;;;;;;0.38;0.38;;;;;;;;;;4164529;28;20361;-41
2022/09/29 05:45:27;;;;;;;0.40;0.35;;;;;;;;;;4160349;28;20049;-41
2022/09/29 05:47:28;;;;;;;0.38;0.38;;;;;;;;;;4164150;28;20103;-41
2022/09/29 05:49:31;;;;;;;0.50;0.50;;;;;;;;;;4161083;28;20558;-41
2022/09/29 05:51:33;;;;;;;0.70;0.52;;;;;;;;;;4163563;28;20064;-41
2022/09/29 05:53:34;;;;;;;0.60;0.40;;;;;;;;;;4162867;28;20544;-41
2022/09/29 05:55:38;;;;;;;0.50;0.35;;;;;;;;;;4161977;28;20061;-41
2022/09/29 05:57:39;;;;;;;0.35;0.30;;;;;;;;;;4163133;28;20479;-41
2022/09/29 05:59:41;;;;;;;0.63;0.50;;;;;;;;;;4163766;28;20119;-41
2022/09/29 06:01:42;;;;;;;0.45;0.45;;;;;;;;;;4161474;28;20057;-41
2022/09/29 06:03:44;;;;;;;0.65;0.30;;;;;;;;;;4162095;28;20115;-41
2022/09/29 06:05:45;;;;;;;0.40;0.40;;;;;;;;;;4163639;28;20088;-41
2022/09/29 06:07:47;;;;;;;0.32;0.30;;;;;;;;;;4156238;28;20061;-42
2022/09/29 06:09:48;;;;;;;0.20;0.20;;;;;;;;;;4159519;28;20046;-41
2022/09/29 06:11:49;;;;;;;0.32;0.28;;;;;;;;;;4155925;28;20057;-40
2022/09/29 06:13:52;;;;;;;0.30;0.30;;;;;;;;;;4163096;28;20061;-40
2022/09/29 06:15:53;;;;;;;0.40;0.20;;;;;;;;;;4161407;28;20390;-40
2022/09/29 06:17:58;;;;;;;0.45;0.30;;;;;;;;;;4163319;28;20107;-40
2022/09/29 06:20:00;;;;;;;0.30;0.30;;;;;;;;;;4157390;28;20053;-40
2022/09/29 06:22:01;;;;;;;1.55;0.50;;;;;;;;;;4155451;28;20501;-41
2022/09/29 06:24:03;;;;;;;0.40;0.32;;;;;;;;;;4161229;28;20056;-40
2022/09/29 06:26:07;;;;;;;0.40;0.30;;;;;;;;;;4156217;28;20057;-40
2022/09/29 06:28:08;;;;;;;0.43;0.40;;;;;;;;;;4160829;28;20058;-41
2022/09/29 06:30:12;;;;;;;0.40;0.32;;;;;;;;;;4157975;28;20053;-40
2022/09/29 06:32:13;;;;;;;0.30;0.30;;;;;;;;;;4160703;28;20061;-41
2022/09/29 06:34:14;;;;;;;0.75;0.50;;;;;;;;;;4156633;28;20064;-40
2022/09/29 06:38:49;;;;;;;1.33;0.35;;;;;;;;;;4172928;28;20052;-40
2022/09/29 06:40:51;;;;;;;0.30;0.30;;;;;;;;;;4159406;28;20060;-40
2022/09/29 06:42:52;;;;;;;0.45;0.40;;;;;;;;;;4162613;28;20349;-40
2022/09/29 06:44:53;;;;;;;0.52;0.47;;;;;;;;;;4158568;28;20072;-40
2022/09/29 06:46:55;;;;;;;0.35;0.20;;;;;;;;;;4159251;28;20054;-40
2022/09/29 06:48:57;;;;;;;0.40;0.38;;;;;;;;;;4159226;28;20052;-41
2022/09/29 06:50:59;;;;;;;0.55;0.25;;;;;;;;;;4158072;28;20194;-41
2022/09/29 06:53:00;;;;;;;1.25;0.40;;;;;;;;;;4155868;28;20053;-40
2022/09/29 06:55:02;;;;;;;0.60;0.20;;;;;;;;;;4157847;28;20061;-40
2022/09/29 06:57:03;;;;;;;0.30;0.30;;;;;;;;;;4156587;28;20081;-41
2022/09/29 06:59:05;;;;;;;1.25;0.30;;;;;;;;;;4154209;28;20053;-40
2022/09/29 07:01:06;;;;;;;0.32;0.30;;;;;;;;;;4139641;28;20064;-41
2022/09/29 07:03:08;;;;;;;0.40;0.40;;;;;;;;;;4152794;28;20066;-40
2022/09/29 07:05:09;;;;;;;1.58;0.20;;;;;;;;;;4153829;28;20104;-40
2022/09/29 07:07:10;;;;;;;0.80;0.28;;;;;;;;;;4152962;28;20139;-41
2022/09/29 07:09:14;;;;;;;0.20;0.20;;;;;;;;;;4151955;28;20049;-41
2022/09/29 07:11:16;;;;;;;2.10;0.30;;;;;;;;;;4158047;28;20061;-40
2022/09/29 07:13:17;;;;;;;0.50;0.30;;;;;;;;;;4152207;28;20061;-40
2022/09/29 07:15:18;;;;;;;1.75;0.20;;;;;;;;;;4157252;28;20212;-41
2022/09/29 07:17:20;;;;;;;0.65;0.40;;;;;;;;;;4154213;28;20057;-40
2022/09/29 07:19:21;;;;;;;3.17;0.35;;;;;;;;;;4158018;28;20131;-41
2022/09/29 07:21:22;;;;;;;0.43;0.40;;;;;;;;;;4158155;28;20053;-42
2022/09/29 07:23:26;;;;;;;0.82;0.30;;;;;;;;;;4156137;28;20360;-42
2022/09/29 07:25:27;;;;;;;3.08;0.35;;;;;;;;;;4154749;28;20135;-41
2022/09/29 07:27:28;;;;;;;0.20;0.15;;;;;;;;;;4154519;28;20058;-41
2022/09/29 07:29:31;;;;;;;2.40;0.30;;;;;;;;;;4155757;28;20183;-40
2022/09/29 07:31:33;;;;;;;0.20;0.20;;;;;;;;;;4157832;28;20057;-40
2022/09/29 07:33:34;;;;;;;0.65;0.40;;;;;;;;;;4153959;28;20127;-41
2022/09/29 07:35:35;;;;;;;0.47;0.20;;;;;;;;;;4156773;28;20057;-41
2022/09/29 07:37:37;;;;;;;1.38;0.25;;;;;;;;;;4154967;28;20057;-40
2022/09/29 07:39:38;;;;;;;0.38;0.30;;;;;;;;;;4154985;28;20049;-41
2022/09/29 07:41:40;;;;;;;0.20;0.20;;;;;;;;;;4155480;28;20104;-40
2022/09/29 07:43:41;;;;;;;1.33;0.30;;;;;;;;;;4152651;28;20139;-40
2022/09/29 07:45:47;;;;;;;0.30;0.30;;;;;;;;;;4154588;28;20049;-40
2022/09/29 07:47:48;;;;;;;1.25;0.60;;;;;;;;;;4151144;28;20065;-40
2022/09/29 07:49:50;;;;;;;1.95;0.40;;;;;;;;;;4151341;28;20485;-41
2022/09/29 07:51:52;;;;;;;0.10;0.10;;;;;;;;;;4148639;28;20111;-40
2022/09/29 07:53:53;;;;;;;0.68;0.30;;;;;;;;;;4146991;28;20511;-41
2022/09/29 07:55:55;;;;;;;1.95;0.30;;;;;;;;;;4156360;28;20058;-41
2022/09/29 07:57:56;;;;;;;2.30;0.40;;;;;;;;;;4152584;28;20060;-40
2022/09/29 07:59:57;;;;;;;0.35;0.30;;;;;;;;;;4153629;28;20060;-40
2022/09/29 08:01:58;;;;;;;0.30;0.30;;;;;;;;;;4151140;28;20053;-42
2022/09/29 08:04:01;;;;;;;0.40;0.30;;;;;;;;;;4152288;28;20463;-42
2022/09/29 08:06:03;;;;;;;0.30;0.20;;;;;;;;;;4152399;28;20179;-41
2022/09/29 08:08:04;;;;;;;0.80;0.30;;;;;;;;;;4149638;28;20091;-40
2022/09/29 08:10:05;;;;;;;0.28;0.28;;;;;;;;;;4154300;28;20085;-42
2022/09/29 08:12:07;;;;;;;0.30;0.30;;;;;;;;;;4152244;28;20050;-43
2022/09/29 08:14:10;;;;;;;0.75;0.40;;;;;;;;;;4148242;28;20053;-41
2022/09/29 08:16:13;;;;;;;0.73;0.30;;;;;;;;;;4144979;28;20621;-41
2022/09/29 08:18:14;;;;;;;0.32;0.28;;;;;;;;;;4152124;28;20061;-41
2022/09/29 08:20:15;;;;;;;0.30;0.30;;;;;;;;;;4152856;28;20215;-40
2022/09/29 08:22:17;;;;;;;1.17;0.30;;;;;;;;;;4145014;28;20684;-41
2022/09/29 08:24:18;;;;;;;0.45;0.40;;;;;;;;;;4152992;28;20115;-41
2022/09/29 08:26:21;;;;;;;0.40;0.40;;;;;;;;;;4149842;28;20057;-41
2022/09/29 08:28:22;;;;;;;0.28;0.25;;;;;;;;;;4140653;28;20057;-40
2022/09/29 08:30:23;;;;;;;2.17;0.60;;;;;;;;;;4147166;28;20754;-40
2022/09/29 08:32:25;;;;;;;0.93;0.30;;;;;;;;;;4149840;28;20137;-41
2022/09/29 08:34:26;;;;;;;0.43;0.40;;;;;;;;;;4145720;28;20053;-41
2022/09/29 08:36:28;;;;;;;0.30;0.22;;;;;;;;;;4142349;28;20053;-41
2022/09/29 08:38:30;;;;;;;0.30;0.30;;;;;;;;;;4149765;28;20050;-41
2022/09/29 08:40:31;;;;;;;0.50;0.40;;;;;;;;;;4144517;28;20057;-41
2022/09/29 08:42:59;;;;;;;0.50;0.40;;;;;;;;;;4146908;28;20053;-44
2022/09/29 08:45:05;;;;;;;0.32;0.32;;;;;;;;;;4150618;28;20492;-42
2022/09/29 08:47:20;;;;;;;1.25;0.30;;;;;;;;;;4146589;28;20065;-41
2022/09/29 08:49:34;;;;;;;2.75;0.63;;;;;;;;;;4146883;28;20056;-42
2022/09/29 08:51:39;;;;;;;0.73;0.40;;;;;;;;;;4146249;28;20119;-42
2022/09/29 08:53:44;;;;;;;0.30;0.30;;;;;;;;;;4146024;28;20499;-42
2022/09/29 08:56:06;;;;;;;1.75;0.40;;;;;;;;;;4150144;28;20139;-41
2022/09/29 08:58:11;;;;;;;3.75;0.40;;;;;;;;;;4146898;28;20106;-42
2022/09/29 09:00:14;;;;;;;0.52;0.40;;;;;;;;;;4144996;28;20441;-41
2022/09/29 09:02:49;;;;;;;0.85;0.30;;;;;;;;;;4139246;28;20646;-43
2022/09/29 09:05:06;;;;;;;0.50;0.30;;;;;;;;;;4144677;28;20093;-42
2022/09/29 09:07:18;;;;;;;0.88;0.30;;;;;;;;;;4146996;28;20057;-42
2022/09/29 09:09:30;;;;;;;0.43;0.30;;;;;;;;;;4128745;28;20050;-41
2022/09/29 09:12:26;;;;;;;1.05;0.60;;;;;;;;;;4149717;28;20061;-39
2022/09/29 09:14:58;;;;;;;0.40;0.30;;;;;;;;;;4136917;28;20737;-41
2022/09/29 09:17:14;;;;;;;0.55;0.35;;;;;;;;;;4150130;28;20049;-41
2022/09/29 09:19:18;;;;;;;1.95;0.30;;;;;;;;;;4152460;28;20049;-40
2022/09/29 09:21:27;;;;;;;0.38;0.20;;;;;;;;;;4152445;28;20064;-40
2022/09/29 09:23:53;;;;;;;0.47;0.38;;;;;;;;;;4152905;28;20104;-40
2022/09/29 09:25:57;;;;;;;1.50;0.55;;;;;;;;;;4149055;28;20406;-40
2022/09/29 09:28:18;;;;;;;0.50;0.43;;;;;;;;;;4150063;28;20053;-41
2022/09/29 09:30:20;;;;;;;0.28;0.28;;;;;;;;;;4151436;28;20757;-40
2022/09/29 09:32:30;;;;;;;0.25;0.25;;;;;;;;;;4149205;28;20111;-41
2022/09/29 09:34:42;;;;;;;0.20;0.20;;;;;;;;;;4129195;28;20115;-41
2022/09/29 09:36:57;;;;;;;0.93;0.30;;;;;;;;;;4145664;28;20091;-41
2022/09/29 09:39:04;;;;;;;0.40;0.40;;;;;;;;;;4149589;28;20776;-40
2022/09/29 09:41:07;;;;;;;1.80;0.32;;;;;;;;;;4148312;28;20132;-41
2022/09/29 09:43:19;;;;;;;0.43;0.38;;;;;;;;;;4152084;28;21044;-40
2022/09/29 09:45:55;;;;;;;0.45;0.30;;;;;;;;;;4150489;28;20064;-40
2022/09/29 09:48:20;;;;;;;0.28;0.28;;;;;;;;;;4150836;28;20598;-40
2022/09/29 09:50:23;;;;;;;0.30;0.30;;;;;;;;;;4151818;28;20095;-40
2022/09/29 09:53:04;;;;;;;0.30;0.20;;;;;;;;;;4149456;28;20151;-42
2022/09/29 09:55:06;;;;;;;0.35;0.35;;;;;;;;;;4147607;28;20057;-40
2022/09/29 09:57:07;;;;;;;0.35;0.30;;;;;;;;;;4148809;28;20120;-41
2022/09/29 09:59:21;;;;;;;2.00;0.40;;;;;;;;;;4149366;28;20053;-40
2022/09/29 10:01:22;;;;;;;0.30;0.30;;;;;;;;;;4150640;28;20115;-40
2022/09/29 10:03:23;;;;;;;0.35;0.35;;;;;;;;;;4153919;28;20065;-40
2022/09/29 10:05:37;;;;;;;0.28;0.28;;;;;;;;;;4149573;28;20058;-40
2022/09/29 10:07:39;;;;;;;0.88;0.32;;;;;;;;;;4153977;28;20061;-41
2022/09/29 10:09:40;;;;;;;0.47;0.40;;;;;;;;;;4151810;28;20068;-40
2022/09/29 10:11:42;;;;;;;0.63;0.32;;;;;;;;;;4154129;28;20452;-40
2022/09/29 10:13:45;;;;;;;0.70;0.40;;;;;;;;;;4154305;28;20053;-40
2022/09/29 10:15:52;;;;;;;2.13;0.75;;;;;;;;;;4154257;28;20053;-40
2022/09/29 10:18:02;;;;;;;0.80;0.40;;;;;;;;;;4153874;28;20053;-40
2022/09/29 10:20:05;;;;;;;0.50;0.50;;;;;;;;;;4154936;28;20053;-40
2022/09/29 10:22:12;;;;;;;0.35;0.25;;;;;;;;;;4155052;28;20053;-40
2022/09/29 10:24:27;;;;;;;0.52;0.43;;;;;;;;;;4144951;28;20111;-41
2022/09/29 10:26:38;;;;;;;0.68;0.50;;;;;;;;;;4145381;28;20099;-40
2022/09/29 10:28:48;;;;;;;0.30;0.28;;;;;;;;;;4149136;28;20057;-40
2022/09/29 10:30:49;;;;;;;0.50;0.50;;;;;;;;;;4155510;28;20061;-41
2022/09/29 10:32:56;;;;;;;0.98;0.30;;;;;;;;;;4146072;28;20053;-39
2022/09/29 10:35:04;;;;;;;0.95;0.50;;;;;;;;;;4143504;28;20053;-39
2022/09/29 10:37:23;;;;;;;1.55;0.28;;;;;;;;;;4150939;28;20508;-41
2022/09/29 10:39:42;;;;;;;0.47;0.40;;;;;;;;;;4134689;28;20054;-42
2022/09/29 10:41:53;;;;;;;1.25;0.30;;;;;;;;;;4153561;28;20156;-39
2022/09/29 10:43:54;;;;;;;0.98;0.30;;;;;;;;;;4149851;28;20120;-40
2022/09/29 10:45:57;;;;;;;0.25;0.25;;;;;;;;;;4151016;28;20061;-39
2022/09/29 10:47:59;;;;;;;0.50;0.50;;;;;;;;;;4147031;28;20410;-41
2022/09/29 10:50:12;;;;;;;0.45;0.30;;;;;;;;;;4145157;28;20049;-41
2022/09/29 10:52:22;;;;;;;0.40;0.40;;;;;;;;;;4145894;28;20053;-41
2022/09/29 10:54:25;;;;;;;0.63;0.40;;;;;;;;;;4152984;28;20111;-40
2022/09/29 10:56:28;;;;;;;1.08;0.32;;;;;;;;;;4155363;28;20079;-40
2022/09/29 10:58:34;;;;;;;0.98;0.52;;;;;;;;;;4156193;28;20046;-40
2022/09/29 11:00:38;;;;;;;0.50;0.30;;;;;;;;;;4147267;28;20054;-40
2022/09/29 11:02:42;;;;;;;0.63;0.30;;;;;;;;;;4148849;28;20123;-40
2022/09/29 11:04:45;;;;;;;0.70;0.50;;;;;;;;;;4150355;28;20116;-40
2022/09/29 11:06:46;;;;;;;0.40;0.30;;;;;;;;;;4151464;28;20057;-40
2022/09/29 11:09:00;;;;;;;0.30;0.30;;;;;;;;;;4148584;28;20725;-43
2022/09/29 11:11:04;;;;;;;1.45;0.60;;;;;;;;;;4146976;28;20053;-40
2022/09/29 11:13:16;;;;;;;0.30;0.20;;;;;;;;;;4143458;28;20056;-40
2022/09/29 11:15:28;;;;;;;0.52;0.30;;;;;;;;;;4148994;28;20057;-40
2022/09/29 11:17:36;;;;;;;0.65;0.50;;;;;;;;;;4150067;28;21577;-40
2022/09/29 11:19:39;;;;;;;0.32;0.30;;;;;;;;;;4142418;28;20848;-41
2022/09/29 11:21:40;;;;;;;0.73;0.30;;;;;;;;;;4141811;28;20061;-40
2022/09/29 11:23:51;;;;;;;0.40;0.40;;;;;;;;;;4148741;28;20059;-40
2022/09/29 11:26:09;;;;;;;0.30;0.30;;;;;;;;;;4147858;28;20619;-40
2022/09/29 11:28:20;;;;;;;0.40;0.40;;;;;;;;;;4146971;28;20050;-40
2022/09/29 11:30:23;;;;;;;1.73;0.32;;;;;;;;;;4150197;28;20073;-40
2022/09/29 11:32:41;;;;;;;1.05;0.45;;;;;;;;;;4150346;28;20057;-40
2022/09/29 11:34:57;;;;;;;1.67;0.47;;;;;;;;;;4134237;28;20601;-40
2022/09/29 11:37:43;;;;;;;0.60;0.50;;;;;;;;;;4152191;28;20567;-41
2022/09/29 11:40:12;;;;;;;0.95;0.30;;;;;;;;;;4151771;28;20811;-41
2022/09/29 11:42:19;;;;;;;1.50;0.13;;;;;;;;;;4127357;28;20525;-40
2022/09/29 11:44:34;;;;;;;0.88;0.30;;;;;;;;;;4156843;28;20111;-43
2022/09/29 11:47:15;;;;;;;0.52;0.40;;;;;;;;;;4126525;28;20093;-45
2022/09/29 11:49:55;;;;;;;0.75;0.32;;;;;;;;;;4144972;28;20060;-45
2022/09/29 11:52:12;;;;;;;2.53;0.50;;;;;;;;;;4155903;28;20381;-46
2022/09/29 11:54:45;;;;;;;0.40;0.40;;;;;;;;;;4148818;28;20155;-44
2022/09/29 11:56:51;;;;;;;1.38;0.40;;;;;;;;;;4131080;28;20472;-46
2022/09/29 11:59:15;;;;;;;2.67;0.50;;;;;;;;;;4150241;28;20056;-46
2022/09/29 12:02:00;;;;;;;1.35;0.22;;;;;;;;;;4148910;28;20050;-45
2022/09/29 12:04:11;;;;;;;0.40;0.30;;;;;;;;;;4151776;28;20112;-44
2022/09/29 12:06:33;;;;;;;0.70;0.30;;;;;;;;;;4152868;28;20087;-45
2022/09/29 12:08:56;;;;;;;2.55;0.45;;;;;;;;;;4150631;28;20041;-43
2022/09/29 12:11:07;;;;;;;0.63;0.20;;;;;;;;;;4149643;28;20095;-47
2022/09/29 12:13:11;;;;;;;1.27;0.40;;;;;;;;;;4150363;28;20115;-43
2022/09/29 12:15:25;;;;;;;0.30;0.30;;;;;;;;;;4147712;28;20496;-45
2022/09/29 12:17:30;;;;;;;0.50;0.47;;;;;;;;;;4154881;28;20057;-44
2022/09/29 12:19:32;;;;;;;0.30;0.30;;;;;;;;;;4151166;28;20057;-44
2022/09/29 12:21:49;;;;;;;0.68;0.20;;;;;;;;;;4150159;28;20061;-45
2022/09/29 12:23:50;;;;;;;0.28;0.22;;;;;;;;;;4146678;28;20513;-45
2022/09/29 12:26:04;;;;;;;0.43;0.35;;;;;;;;;;4151273;28;20519;-46
2022/09/29 12:28:11;;;;;;;0.50;0.30;;;;;;;;;;4150967;28;20057;-44
2022/09/29 12:30:23;;;;;;;0.73;0.40;;;;;;;;;;4147447;28;20273;-45
2022/09/29 12:32:28;;;;;;;0.40;0.40;;;;;;;;;;4146868;28;20053;-45
2022/09/29 12:34:44;;;;;;;0.20;0.20;;;;;;;;;;4150444;28;20057;-45
2022/09/29 12:36:54;;;;;;;0.13;0.10;;;;;;;;;;4151813;28;20630;-45
2022/09/29 12:39:03;;;;;;;1.52;0.30;;;;;;;;;;4153382;28;20052;-45
2022/09/29 12:41:16;;;;;;;1.98;0.38;;;;;;;;;;4145939;28;20099;-46